Time;durP1;ratioP1;P1;durP2;ratioP2;P2;SDS_P1;SDS_P2;PMS_P1;PMS_P2;Temp;Humidity;BMP_temperature;BMP_pressure;BME280_temperature;BME280_humidity;BME280_pressure;Samples;Min_cycle;Max_cycle;Signal;HPM_P1;HPM_P2
2021/11/11 00:00:23;;;;;;;4.60;2.60;;;;;;;6.76;100.00;102143.28;6240394;28;20054;-66
2021/11/11 00:03:24;;;;;;;5.65;3.03;;;;;;;6.79;100.00;102145.84;6250543;28;20567;-66
2021/11/11 00:06:27;;;;;;;8.65;2.95;;;;;;;6.82;100.00;102143.22;6250096;28;20415;-66
2021/11/11 00:09:28;;;;;;;3.47;2.63;;;;;;;6.82;100.00;102142.34;6250417;28;20126;-66
2021/11/11 00:12:31;;;;;;;10.88;3.28;;;;;;;6.84;100.00;102136.19;6250031;28;20045;-66
2021/11/11 00:15:33;;;;;;;6.03;2.75;;;;;;;6.84;100.00;102135.34;6246398;28;20046;-66
2021/11/11 00:18:34;;;;;;;7.07;4.05;;;;;;;6.83;100.00;102138.84;6225479;28;20042;-66
2021/11/11 00:21:37;;;;;;;7.45;3.55;;;;;;;6.80;100.00;102125.81;6225119;28;20053;-66
2021/11/11 00:24:38;;;;;;;4.72;2.95;;;;;;;6.76;100.00;102119.75;6221273;28;20459;-66
2021/11/11 00:27:41;;;;;;;5.25;3.15;;;;;;;6.75;100.00;102114.56;6213848;28;20041;-66
2021/11/11 00:30:42;;;;;;;6.60;2.92;;;;;;;6.74;100.00;102125.91;6200610;28;20053;-66
2021/11/11 00:33:43;;;;;;;5.55;3.05;;;;;;;6.73;100.00;102124.19;6201665;28;20059;-66
2021/11/11 00:36:46;;;;;;;6.18;3.50;;;;;;;6.74;100.00;102121.56;6207880;28;20050;-66
2021/11/11 00:39:48;;;;;;;7.97;3.45;;;;;;;6.77;100.00;102118.03;6205640;28;20056;-66
2021/11/11 00:42:49;;;;;;;9.00;3.67;;;;;;;6.78;100.00;102115.41;6225134;28;20049;-66
2021/11/11 00:45:51;;;;;;;6.47;2.95;;;;;;;6.81;100.00;102122.31;6224871;28;20057;-66
2021/11/11 00:48:52;;;;;;;9.52;3.45;;;;;;;6.80;100.00;102118.84;6224640;28;20042;-66
2021/11/11 00:51:55;;;;;;;5.97;3.08;;;;;;;6.79;100.00;102114.50;6224468;28;20424;-66
2021/11/11 00:54:56;;;;;;;5.90;3.38;;;;;;;6.79;100.00;102114.50;6224309;28;20061;-66
2021/11/11 00:57:58;;;;;;;7.60;3.78;;;;;;;6.76;100.00;102117.16;6224523;28;20512;-66
2021/11/11 01:01:01;;;;;;;6.60;3.30;;;;;;;6.78;100.00;102104.09;6210597;28;20493;-66
2021/11/11 01:04:02;;;;;;;6.20;3.05;;;;;;;6.77;100.00;102089.31;6200231;28;20058;-66
2021/11/11 01:07:06;;;;;;;12.65;4.40;;;;;;;6.74;100.00;102094.56;6200040;28;20054;-66
2021/11/11 01:10:10;;;;;;;10.07;3.72;;;;;;;6.71;100.00;102090.25;6200939;28;20058;-66
2021/11/11 01:13:12;;;;;;;9.88;4.00;;;;;;;6.74;100.00;102086.72;6199930;28;20046;-66
2021/11/11 01:16:13;;;;;;;9.32;3.97;;;;;;;6.71;100.00;102089.38;6199906;28;20057;-66
2021/11/11 01:19:14;;;;;;;8.02;3.45;;;;;;;6.71;100.00;102084.16;6199842;28;20043;-66
2021/11/11 01:22:17;;;;;;;6.43;2.63;;;;;;;6.70;100.00;102082.44;6199437;28;20489;-66
2021/11/11 01:25:22;;;;;;;8.27;3.70;;;;;;;6.68;100.00;102097.28;6199739;28;20058;-66
2021/11/11 01:28:24;;;;;;;8.25;3.80;;;;;;;6.65;100.00;102100.78;6199855;28;20054;-66
2021/11/11 01:31:25;;;;;;;7.97;3.30;;;;;;;6.63;100.00;102092.09;6199326;28;20054;-66
2021/11/11 01:34:28;;;;;;;8.35;3.33;;;;;;;6.66;100.00;102085.97;6199375;28;20062;-66
2021/11/11 01:37:31;;;;;;;5.93;3.05;;;;;;;6.69;100.00;102084.19;6199424;28;20508;-66
2021/11/11 01:40:33;;;;;;;5.85;3.08;;;;;;;6.71;100.00;102074.56;6198229;28;20046;-66
2021/11/11 01:43:35;;;;;;;5.82;3.33;;;;;;;6.74;100.00;102074.53;6223651;28;20060;-66
2021/11/11 01:46:36;;;;;;;16.02;4.28;;;;;;;6.75;100.00;102070.16;6223365;28;20050;-66
2021/11/11 01:49:37;;;;;;;5.90;3.00;;;;;;;6.76;100.00;102072.75;6223490;28;20054;-66
2021/11/11 01:52:42;;;;;;;9.18;3.33;;;;;;;6.79;100.00;102071.84;6223100;28;20452;-66
2021/11/11 01:55:45;;;;;;;5.95;3.47;;;;;;;6.80;100.00;102078.78;6223053;28;20057;-66
2021/11/11 01:58:47;;;;;;;6.45;3.72;;;;;;;6.80;100.00;102078.78;6223005;28;20073;-66
2021/11/11 02:01:49;;;;;;;7.93;3.88;;;;;;;6.80;100.00;102077.03;6222853;28;20056;-66
2021/11/11 02:04:51;;;;;;;9.93;4.43;;;;;;;6.79;100.00;102071.84;6223121;28;20058;-66
2021/11/11 02:07:54;;;;;;;9.45;3.95;;;;;;;6.78;100.00;102062.28;6222987;28;20408;-66
2021/11/11 02:10:55;;;;;;;5.88;3.00;;;;;;;6.77;100.00;102063.19;6221274;28;20050;-66
2021/11/11 02:13:57;;;;;;;7.22;3.45;;;;;;;6.78;100.00;102067.50;6198387;28;20046;-66
2021/11/11 02:16:58;;;;;;;9.27;3.60;;;;;;;6.77;100.00;102066.66;6198630;28;20057;-66
2021/11/11 02:20:05;;;;;;;6.93;3.25;;;;;;;6.77;100.00;102063.19;6198100;28;20050;-66
2021/11/11 02:23:10;;;;;;;8.48;3.60;;;;;;;6.80;100.00;102069.19;6202147;28;20413;-66
2021/11/11 02:26:11;;;;;;;7.45;3.35;;;;;;;6.80;100.00;102068.34;6213761;28;20121;-66
2021/11/11 02:29:13;;;;;;;7.78;3.42;;;;;;;6.80;100.00;102074.41;6199924;28;20049;-66
2021/11/11 02:32:15;;;;;;;8.80;4.43;;;;;;;6.83;100.00;102073.53;6205991;28;20046;-66
2021/11/11 02:35:19;;;;;;;6.95;3.88;;;;;;;6.84;100.00;102083.06;6199647;28;20050;-66
2021/11/11 02:38:21;;;;;;;6.97;3.53;;;;;;;6.84;100.00;102076.09;6206129;28;20042;-66
2021/11/11 02:41:22;;;;;;;6.75;3.70;;;;;;;6.86;100.00;102069.13;6197933;28;20050;-66
2021/11/11 02:44:24;;;;;;;8.35;3.53;;;;;;;6.88;100.00;102071.69;6222413;28;20429;-66
2021/11/11 02:47:25;;;;;;;7.53;3.05;;;;;;;6.88;100.00;102071.69;6221393;28;20060;-66
2021/11/11 02:50:29;;;;;;;15.30;3.83;;;;;;;6.89;100.00;102080.38;6205774;28;20061;-66
2021/11/11 02:53:30;;;;;;;5.68;3.45;;;;;;;6.85;100.00;102069.13;6197735;28;20270;-66
2021/11/11 02:56:32;;;;;;;7.47;3.92;;;;;;;6.86;100.00;102078.69;6197702;28;20047;-66
2021/11/11 02:59:34;;;;;;;5.75;3.38;;;;;;;6.89;100.00;102083.00;6197600;28;20043;-66
2021/11/11 03:02:38;;;;;;;7.78;3.85;;;;;;;6.86;100.00;102081.31;6205145;28;20050;-66
2021/11/11 03:05:41;;;;;;;8.15;3.42;;;;;;;6.85;100.00;102087.41;6205714;28;20428;-65
2021/11/11 03:08:43;;;;;;;8.93;4.72;;;;;;;6.86;100.00;102081.31;6197674;28;20417;-66
2021/11/11 03:11:44;;;;;;;6.40;3.53;;;;;;;6.86;100.00;102076.94;6197729;28;20050;-66
2021/11/11 03:14:46;;;;;;;7.68;3.78;;;;;;;6.89;100.00;102070.78;6221171;28;20053;-66
2021/11/11 03:17:49;;;;;;;7.60;4.13;;;;;;;6.90;100.00;102069.03;6221871;28;20068;-66
2021/11/11 03:20:52;;;;;;;9.77;4.03;;;;;;;6.94;100.00;102073.31;6221252;28;20053;-66
2021/11/11 03:23:53;;;;;;;9.38;3.38;;;;;;;6.91;100.00;102071.66;6221558;28;20046;-66
2021/11/11 03:26:55;;;;;;;8.05;3.67;;;;;;;6.88;100.00;102083.91;6221690;28;20428;-66
2021/11/11 03:29:56;;;;;;;4.55;2.83;;;;;;;6.84;100.00;102076.09;6221731;28;20046;-66
2021/11/11 03:32:59;;;;;;;8.32;4.10;;;;;;;6.86;100.00;102082.19;6221723;28;20049;-66
2021/11/11 03:36:02;;;;;;;10.30;3.88;;;;;;;6.85;100.00;102083.03;6221436;28;20068;-66
2021/11/11 03:39:05;;;;;;;5.50;3.42;;;;;;;6.84;100.00;102089.16;6221623;28;20046;-66
2021/11/11 03:42:07;;;;;;;7.03;3.88;;;;;;;6.84;100.00;102091.78;6221516;28;20053;-66
2021/11/11 03:45:10;;;;;;;9.25;4.18;;;;;;;6.82;100.00;102093.56;6221778;28;20077;-66
2021/11/11 03:48:11;;;;;;;9.18;3.60;;;;;;;6.82;100.00;102093.56;6221536;28;20125;-66
2021/11/11 03:51:14;;;;;;;12.48;4.55;;;;;;;6.80;100.00;102097.94;6221406;28;20050;-65
2021/11/11 03:54:19;;;;;;;12.07;3.97;;;;;;;6.82;100.00;102090.09;6221287;28;20058;-66
2021/11/11 03:57:20;;;;;;;8.57;4.40;;;;;;;6.84;100.00;102096.13;6221539;28;20053;-66
2021/11/11 04:00:22;;;;;;;8.75;3.50;;;;;;;6.86;100.00;102097.84;6221051;28;20467;-66
2021/11/11 04:03:24;;;;;;;9.15;4.38;;;;;;;6.86;100.00;102091.78;6223512;28;20061;-66
2021/11/11 04:06:27;;;;;;;8.00;3.72;;;;;;;6.88;100.00;102099.56;6225784;28;20073;-66
2021/11/11 04:09:28;;;;;;;7.03;3.80;;;;;;;6.86;100.00;102095.25;6226117;28;20485;-65
2021/11/11 04:12:29;;;;;;;12.40;4.53;;;;;;;6.87;100.00;102101.31;6225437;28;20061;-65
2021/11/11 04:15:31;;;;;;;8.20;3.65;;;;;;;6.87;100.00;102101.31;6225816;28;20046;-65
2021/11/11 04:18:32;;;;;;;7.75;4.20;;;;;;;6.82;100.00;102106.63;6221385;28;20039;-66
2021/11/11 04:21:35;;;;;;;14.00;4.80;;;;;;;6.81;100.00;102111.84;6200898;28;20050;-65
2021/11/11 04:24:37;;;;;;;8.45;4.82;;;;;;;6.81;100.00;102102.28;6211060;28;20076;-66
2021/11/11 04:27:43;;;;;;;8.25;4.75;;;;;;;6.80;100.00;102097.94;6205544;28;20049;-65
2021/11/11 04:30:47;;;;;;;11.40;5.47;;;;;;;6.77;100.00;102100.63;6213169;28;20050;-66
2021/11/11 04:33:52;;;;;;;13.63;5.45;;;;;;;6.77;100.00;102094.53;6218929;28;20046;-66
2021/11/11 04:37:20;;;;;;;12.23;4.13;;;;;;;6.78;100.00;102098.84;6207072;28;20048;-66
2021/11/11 04:43:54;;;;;;;16.88;5.72;;;;;;;6.77;100.00;102091.91;6218589;28;20046;-66
2021/11/11 04:47:10;;;;;;;8.23;3.92;;;;;;;6.79;100.00;102080.53;6213160;28;20041;-66
2021/11/11 04:50:36;;;;;;;9.52;4.50;;;;;;;6.82;100.00;102079.63;6216279;28;20046;-65
2021/11/11 05:00:30;;;;;;;11.73;5.47;;;;;;;6.79;100.00;102067.47;6200424;28;20047;-66
2021/11/11 05:03:34;;;;;;;13.13;5.72;;;;;;;6.80;100.00;102065.72;6200378;28;20051;-66
2021/11/11 05:06:35;;;;;;;17.27;5.40;;;;;;;6.78;100.00;102057.06;6199895;28;20057;-66
2021/11/11 05:09:38;;;;;;;14.55;5.50;;;;;;;6.79;100.00;102054.41;6200144;28;20042;-66
2021/11/11 05:12:39;;;;;;;13.50;5.13;;;;;;;6.79;100.00;102057.03;6204303;28;20051;-66
2021/11/11 05:15:41;;;;;;;11.30;4.85;;;;;;;6.77;100.00;102077.09;6205285;28;20497;-66
2021/11/11 05:18:42;;;;;;;7.78;4.55;;;;;;;6.79;100.00;102074.44;6199884;28;20053;-66
2021/11/11 05:21:44;;;;;;;10.32;4.60;;;;;;;6.82;100.00;102077.03;6199687;28;20527;-66
2021/11/11 05:24:46;;;;;;;11.20;4.53;;;;;;;6.83;100.00;102071.75;6199682;28;20063;-66
2021/11/11 05:27:49;;;;;;;8.00;4.10;;;;;;;6.84;100.00;102073.47;6199517;28;20073;-66
2021/11/11 05:30:52;;;;;;;8.23;4.78;;;;;;;6.84;100.00;102068.25;6199424;28;20528;-66
2021/11/11 05:33:53;;;;;;;9.30;4.25;;;;;;;6.87;100.00;102067.34;6199330;28;20047;-66
2021/11/11 05:36:54;;;;;;;11.35;5.05;;;;;;;6.88;100.00;102069.06;6199502;28;20046;-66
2021/11/11 05:39:57;;;;;;;8.77;4.50;;;;;;;6.88;100.00;102076.06;6198864;28;20042;-66
2021/11/11 05:42:59;;;;;;;9.20;4.00;;;;;;;6.89;100.00;102080.38;6199361;28;20050;-66
2021/11/11 05:46:01;;;;;;;8.30;4.47;;;;;;;6.89;100.00;102089.09;6199037;28;20425;-66
2021/11/11 05:49:02;;;;;;;12.18;4.63;;;;;;;6.91;100.00;102092.56;6199131;28;20046;-66
2021/11/11 05:52:05;;;;;;;9.73;4.68;;;;;;;6.92;100.00;102093.41;6198772;28;20046;-66
2021/11/11 05:55:09;;;;;;;9.27;4.72;;;;;;;6.93;100.00;102092.50;6198850;28;20497;-65
2021/11/11 05:58:10;;;;;;;10.10;4.78;;;;;;;6.91;100.00;102097.78;6198947;28;20050;-65
2021/11/11 06:01:12;;;;;;;12.40;5.63;;;;;;;6.92;100.00;102102.09;6198563;28;20405;-65
2021/11/11 06:04:13;;;;;;;7.10;3.88;;;;;;;6.93;100.00;102101.22;6198798;28;20050;-65
2021/11/11 06:07:15;;;;;;;10.82;5.15;;;;;;;6.91;100.00;102107.38;6198625;28;20058;-65
2021/11/11 06:10:18;;;;;;;14.65;5.38;;;;;;;6.91;100.00;102099.53;6207576;28;20416;-66
2021/11/11 06:13:19;;;;;;;9.05;4.15;;;;;;;6.93;100.00;102108.19;6208834;28;20053;-65
2021/11/11 06:16:22;;;;;;;13.95;5.35;;;;;;;6.89;100.00;102103.91;6209173;28;20046;-65
2021/11/11 06:19:23;;;;;;;8.77;4.15;;;;;;;6.91;100.00;102108.22;6209119;28;20049;-65
2021/11/11 06:22:25;;;;;;;6.60;3.20;;;;;;;6.94;100.00;102107.31;6208347;28;20057;-65
2021/11/11 06:25:28;;;;;;;8.55;4.55;;;;;;;6.95;100.00;102106.41;6206841;28;20065;-65
2021/11/11 06:28:30;;;;;;;9.60;4.82;;;;;;;6.97;100.00;102107.25;6210610;28;20054;-65
2021/11/11 06:31:31;;;;;;;10.77;4.72;;;;;;;6.97;100.00;102117.72;6208284;28;21384;-65
2021/11/11 06:34:32;;;;;;;9.05;4.63;;;;;;;6.97;100.00;102109.88;6207328;28;20635;-65
2021/11/11 06:37:34;;;;;;;11.35;4.55;;;;;;;6.98;100.00;102116.81;6206993;28;20053;-65
2021/11/11 06:40:37;;;;;;;14.63;5.18;;;;;;;6.96;100.00;102121.22;6205584;28;20049;-65
2021/11/11 06:43:39;;;;;;;8.93;4.88;;;;;;;6.97;100.00;102122.94;6208453;28;20481;-65
2021/11/11 06:46:40;;;;;;;16.45;4.70;;;;;;;6.98;100.00;102122.03;6207722;28;20041;-65
2021/11/11 06:49:41;;;;;;;10.77;4.18;;;;;;;6.99;100.00;102121.16;6207875;28;20050;-65
2021/11/11 06:52:43;;;;;;;15.20;5.13;;;;;;;6.97;100.00;102125.56;6208297;28;20049;-66
2021/11/11 06:55:47;;;;;;;9.93;3.92;;;;;;;6.96;100.00;102129.06;6208452;28;20050;-65
2021/11/11 06:58:48;;;;;;;10.82;4.63;;;;;;;6.93;100.00;102131.72;6207618;28;20042;-65
2021/11/11 07:01:50;;;;;;;10.68;5.32;;;;;;;6.93;100.00;102136.94;6209350;28;20051;-65
2021/11/11 07:04:51;;;;;;;16.42;4.75;;;;;;;6.96;100.00;102147.34;6207330;28;20052;-66
2021/11/11 07:07:52;;;;;;;7.75;3.72;;;;;;;6.99;100.00;102152.50;6207144;28;20496;-65
2021/11/11 07:10:56;;;;;;;9.32;5.07;;;;;;;6.99;100.00;102156.00;6205069;28;20049;-66
2021/11/11 07:13:57;;;;;;;8.45;4.63;;;;;;;7.01;100.00;102166.44;6197697;28;20053;-65
2021/11/11 07:16:59;;;;;;;7.75;4.55;;;;;;;6.99;100.00;102161.22;6201556;28;20516;-65
2021/11/11 07:20:02;;;;;;;11.48;5.25;;;;;;;6.98;100.00;102162.09;6197981;28;20166;-65
2021/11/11 07:23:04;;;;;;;9.13;4.50;;;;;;;7.01;100.00;102164.69;6197786;28;20047;-65
2021/11/11 07:26:07;;;;;;;13.23;4.65;;;;;;;7.02;100.00;102155.94;6197585;28;20057;-65
2021/11/11 07:29:08;;;;;;;10.43;4.45;;;;;;;7.06;100.00;102156.78;6197801;28;20053;-65
2021/11/11 07:32:10;;;;;;;6.53;3.90;;;;;;;7.07;100.00;102161.09;6197146;28;20046;-66
2021/11/11 07:35:12;;;;;;;11.20;4.82;;;;;;;7.09;100.00;102164.56;6197614;28;20058;-65
2021/11/11 07:38:15;;;;;;;13.05;4.55;;;;;;;7.13;100.00;102163.63;6199129;28;20054;-65
2021/11/11 07:41:17;;;;;;;10.85;4.63;;;;;;;7.17;100.00;102170.50;6202009;28;20054;-65
2021/11/11 07:44:19;;;;;;;7.47;3.72;;;;;;;7.21;100.00;102163.50;6202018;28;20140;-65
2021/11/11 07:47:27;;;;;;;13.38;5.18;;;;;;;7.20;100.00;102162.63;6201867;28;20047;-66
2021/11/11 07:50:29;;;;;;;9.02;3.92;;;;;;;7.20;100.00;102159.16;6208874;28;20057;-65
2021/11/11 07:53:31;;;;;;;9.65;4.63;;;;;;;7.24;100.00;102163.44;6225964;28;20088;-65
2021/11/11 07:56:35;;;;;;;9.05;4.93;;;;;;;7.27;100.00;102160.78;6225969;28;20053;-66
2021/11/11 07:59:39;;;;;;;8.40;4.25;;;;;;;7.28;100.00;102163.38;6225801;28;20053;-66
2021/11/11 08:02:42;;;;;;;12.68;5.10;;;;;;;7.33;100.00;102158.06;6225853;28;20056;-66
2021/11/11 08:05:44;;;;;;;9.07;4.78;;;;;;;7.40;100.00;102150.97;6225740;28;20064;-66
2021/11/11 08:08:45;;;;;;;11.90;4.95;;;;;;;7.45;100.00;102151.75;6225748;28;20464;-66
2021/11/11 08:11:49;;;;;;;15.88;4.88;;;;;;;7.47;100.00;102143.00;6217668;28;20493;-66
2021/11/11 08:14:51;;;;;;;17.88;7.18;;;;;;;7.52;100.00;102145.53;6213664;28;20153;-66
2021/11/11 08:17:52;;;;;;;12.68;4.38;;;;;;;7.56;100.00;102137.59;6221606;28;20129;-67
2021/11/11 08:20:54;;;;;;;13.20;4.70;;;;;;;7.59;100.00;102139.31;6213025;28;20189;-65
2021/11/11 08:23:55;;;;;;;13.73;4.25;;;;;;;7.61;100.00;102129.66;6206668;28;20520;-66
2021/11/11 08:26:58;;;;;;;10.25;4.75;;;;;;;7.61;100.00;102125.28;6216423;28;20046;-66
2021/11/11 08:29:59;;;;;;;13.82;4.75;;;;;;;7.64;100.00;102124.38;6215298;28;20049;-67
2021/11/11 08:33:01;;;;;;;12.90;4.82;;;;;;;7.73;100.00;102123.34;6218094;28;20183;-65
2021/11/11 08:36:04;;;;;;;10.27;4.38;;;;;;;7.79;100.00;102125.81;6203163;28;20054;-65
2021/11/11 08:39:06;;;;;;;12.13;4.55;;;;;;;7.83;100.00;102125.72;6200694;28;20572;-66
2021/11/11 08:42:11;;;;;;;10.23;4.13;;;;;;;7.85;100.00;102120.47;6210335;28;20042;-66
2021/11/11 08:45:13;;;;;;;12.75;5.13;;;;;;;7.88;100.00;102123.03;6201615;28;20050;-66
2021/11/11 08:48:14;;;;;;;12.73;5.20;;;;;;;7.91;100.00;102122.13;6200335;28;20051;-67
2021/11/11 08:51:16;;;;;;;11.13;5.13;;;;;;;7.93;100.00;102133.41;6215712;28;20401;-66
2021/11/11 08:54:19;;;;;;;8.27;4.35;;;;;;;7.97;100.00;102130.69;6224954;28;20058;-68
2021/11/11 08:57:22;;;;;;;10.07;4.55;;;;;;;7.98;100.00;102135.03;6216564;28;20046;-65
2021/11/11 09:00:29;;;;;;;11.98;4.80;;;;;;;7.97;100.00;102143.78;6200512;28;20050;-66
2021/11/11 09:03:30;;;;;;;6.90;3.47;;;;;;;7.99;100.00;102139.38;6200345;28;20056;-66
2021/11/11 09:06:31;;;;;;;9.55;4.57;;;;;;;7.99;100.00;102143.75;6202488;28;20061;-66
2021/11/11 09:09:33;;;;;;;8.85;4.20;;;;;;;7.98;100.00;102137.66;6218707;28;20053;-66
2021/11/11 09:12:36;;;;;;;11.95;4.03;;;;;;;8.01;100.00;102142.84;6215525;28;20049;-66
2021/11/11 09:15:37;;;;;;;11.23;3.95;;;;;;;8.05;100.00;102141.88;6207827;28;20053;-66
2021/11/11 09:18:39;;;;;;;11.55;4.13;;;;;;;8.11;100.00;102135.66;6208515;28;20054;-67
2021/11/11 09:21:42;;;;;;;8.70;4.15;;;;;;;8.14;100.00;102146.94;6199522;28;20405;-68
2021/11/11 09:24:43;;;;;;;8.38;5.07;;;;;;;8.14;100.00;102151.31;6209854;28;20075;-67
2021/11/11 09:27:47;;;;;;;12.07;4.40;;;;;;;8.14;100.00;102148.69;6224135;28;20053;-66
2021/11/11 09:30:49;;;;;;;9.98;4.78;;;;;;;8.17;100.00;102148.59;6219817;28;20038;-68
2021/11/11 09:33:51;;;;;;;9.73;4.25;;;;;;;8.15;100.00;102153.03;6207740;28;20073;-68
2021/11/11 09:36:53;;;;;;;13.38;4.45;;;;;;;8.12;100.00;102153.06;6199454;28;20051;-68
2021/11/11 09:39:54;;;;;;;12.60;4.32;;;;;;;8.13;100.00;102157.44;6199160;28;20054;-68
2021/11/11 09:42:57;;;;;;;9.68;5.00;;;;;;;8.12;100.00;102156.56;6199468;28;20497;-68
2021/11/11 09:45:59;;;;;;;10.45;5.03;;;;;;;8.16;100.00;102154.75;6199231;28;20054;-67
2021/11/11 09:49:01;;;;;;;10.15;5.00;;;;;;;8.17;100.00;102153.84;6199461;28;20050;-67
2021/11/11 09:52:03;;;;;;;10.05;4.68;;;;;;;8.17;100.00;102143.38;6222485;28;20501;-67
2021/11/11 09:58:41;;;;;;;8.98;3.95;;;;;;;8.27;100.00;102151.91;6211602;28;20053;-69
2021/11/11 10:01:43;;;;;;;14.30;5.30;;;;;;;8.32;100.00;102148.28;6213747;28;20049;-69
2021/11/11 10:04:44;;;;;;;8.93;4.43;;;;;;;8.39;100.00;102147.28;6203432;28;20086;-69
2021/11/11 10:07:46;;;;;;;10.88;4.15;;;;;;;8.42;100.00;102145.50;6198710;28;20050;-70
2021/11/11 10:10:47;;;;;;;9.75;3.70;;;;;;;8.44;100.00;102141.94;6198450;28;20054;-70
2021/11/11 10:13:54;;;;;;;8.70;3.78;;;;;;;8.47;100.00;102138.41;6198706;28;20080;-70
2021/11/11 10:16:59;;;;;;;7.50;3.92;;;;;;;8.60;100.00;102137.25;6208338;28;20421;-70
2021/11/11 10:20:00;;;;;;;11.02;5.03;;;;;;;8.59;100.00;102135.53;6207853;28;20053;-70
2021/11/11 10:23:23;;;;;;;9.00;4.28;;;;;;;8.61;100.00;102138.97;6208374;28;20050;-70
2021/11/11 10:26:29;;;;;;;8.43;3.97;;;;;;;8.69;100.00;102133.53;6206665;28;20424;-70
2021/11/11 10:29:37;;;;;;;6.75;4.18;;;;;;;8.82;100.00;102129.75;6208981;28;20054;-70
2021/11/11 10:32:41;;;;;;;7.00;3.95;;;;;;;8.86;100.00;102131.41;6207342;28;20049;-70
2021/11/11 10:35:46;;;;;;;6.93;3.53;;;;;;;8.85;100.00;102127.88;6208810;28;20049;-70
2021/11/11 10:39:08;;;;;;;8.05;4.03;;;;;;;8.84;100.00;102128.78;6207875;28;20129;-70
2021/11/11 10:42:17;;;;;;;6.72;3.60;;;;;;;8.77;100.00;102124.63;6203761;28;20037;-70
2021/11/11 10:45:22;;;;;;;;;;;;;;;8.80;100.00;102128.91;6210604;28;20066;-70
2021/11/11 10:48:25;;;;;;;12.57;4.97;;;;;;;8.86;100.00;102128.78;6205859;28;19921;-70
2021/11/11 10:51:28;;;;;;;11.50;4.50;;;;;;;8.85;100.00;102130.50;6207420;28;20054;-70
2021/11/11 10:54:29;;;;;;;8.27;4.20;;;;;;;8.92;100.00;102120.75;6199952;28;20057;-70
2021/11/11 10:57:33;;;;;;;6.15;3.28;;;;;;;8.94;100.00;102124.19;6205431;28;20058;-70
2021/11/11 11:00:49;;;;;;;11.05;4.30;;;;;;;8.93;100.00;102122.47;6221677;28;20054;-70
2021/11/11 11:03:51;;;;;;;9.02;4.32;;;;;;;8.96;100.00;102132.03;6222269;28;20042;-69
2021/11/11 11:07:12;;;;;;;6.15;3.65;;;;;;;9.04;100.00;102127.47;6213825;28;20108;-69
2021/11/11 11:10:17;;;;;;;7.38;3.75;;;;;;;9.02;100.00;102119.63;6198617;28;20133;-70
2021/11/11 11:13:21;;;;;;;6.10;3.40;;;;;;;9.00;100.00;102117.94;6201424;28;20054;-70
2021/11/11 11:16:25;;;;;;;6.03;3.15;;;;;;;8.94;100.00;102126.81;6202483;28;20073;-70
2021/11/11 11:19:27;;;;;;;8.40;4.07;;;;;;;8.99;100.00;102122.31;6218562;28;20061;-70
2021/11/11 11:22:29;;;;;;;7.50;3.70;;;;;;;9.05;100.00;102122.19;6226598;28;20048;-67
2021/11/11 11:25:31;;;;;;;9.45;4.13;;;;;;;9.09;100.00;102126.44;6226766;28;20050;-73
2021/11/11 11:28:50;;;;;;;5.47;2.78;;;;;;;9.12;100.00;102115.84;6227027;28;20488;-71
2021/11/11 11:32:04;;;;;;;5.53;3.22;;;;;;;9.17;100.00;102118.38;6224139;28;20053;-70
2021/11/11 11:35:07;;;;;;;9.05;4.30;;;;;;;9.12;100.00;102113.25;6226591;28;20077;-70
2021/11/11 11:38:22;;;;;;;4.72;2.85;;;;;;;9.17;100.00;102110.50;6226394;28;20049;-69
2021/11/11 11:41:30;;;;;;;10.18;4.07;;;;;;;9.18;100.00;102111.38;6226110;28;20467;-69
2021/11/11 11:44:39;;;;;;;6.55;3.20;;;;;;;9.23;100.00;102106.88;6216964;28;20066;-69
2021/11/11 11:47:45;;;;;;;7.50;2.83;;;;;;;9.27;100.00;102113.78;6201866;28;20054;-70
2021/11/11 11:50:51;;;;;;;4.90;2.80;;;;;;;9.26;100.00;102117.28;6201683;28;20144;-70
2021/11/11 11:54:03;;;;;;;6.50;3.00;;;;;;;9.25;100.00;102112.94;6202008;28;20053;-70
2021/11/11 11:57:09;;;;;;;7.05;3.05;;;;;;;9.25;100.00;102112.94;6239584;23;20057;-69
2021/11/11 12:00:27;;;;;;;5.35;3.08;;;;;;;9.22;100.00;102111.28;6211784;28;20184;-69
2021/11/11 12:03:40;;;;;;;7.43;3.08;;;;;;;9.23;100.00;102112.97;6222944;28;20121;-68
2021/11/11 12:06:57;;;;;;;6.95;3.50;;;;;;;9.33;100.00;102117.09;6201685;28;20046;-69
2021/11/11 12:10:06;;;;;;;4.55;2.67;;;;;;;9.32;100.00;102112.75;6201226;28;20485;-69
2021/11/11 12:13:21;;;;;;;6.03;3.03;;;;;;;9.37;100.00;102110.84;6201527;28;20137;-69
2021/11/11 12:16:41;;;;;;;7.10;3.15;;;;;;;9.45;100.00;102104.53;6220378;28;20402;-68
2021/11/11 12:39:54;;;;;;;4.35;2.97;;;;;;;9.62;100.00;102087.41;6220492;28;20648;-67
2021/11/11 12:43:00;;;;;;;7.90;3.08;;;;;;;9.61;100.00;102079.59;6224989;28;20405;-69
2021/11/11 12:46:02;;;;;;;6.82;3.05;;;;;;;9.55;100.00;102085.03;6212839;28;20054;-69
2021/11/11 12:49:25;;;;;;;5.97;3.22;;;;;;;9.52;100.00;102074.59;6222207;28;20611;-69
2021/11/11 12:52:28;;;;;;;4.90;2.90;;;;;;;9.51;100.00;102072.91;6224821;28;20057;-69
2021/11/11 12:55:29;;;;;;;4.68;2.25;;;;;;;9.51;100.00;102089.50;6202701;28;20054;-69
2021/11/11 12:58:34;;;;;;;3.83;2.00;;;;;;;9.50;100.00;102079.91;6200499;28;20054;-69
2021/11/11 13:01:38;;;;;;;4.65;2.28;;;;;;;9.42;100.00;102078.41;6201858;28;20417;-69
2021/11/11 13:04:51;;;;;;;4.82;1.92;;;;;;;9.38;100.00;102083.72;6224475;28;20061;-69
2021/11/11 13:07:54;;;;;;;4.60;1.85;;;;;;;9.38;100.00;102078.47;6224360;28;20484;-68
2021/11/11 13:10:58;;;;;;;5.70;2.17;;;;;;;9.38;100.00;102078.47;6224171;28;20390;-69
2021/11/11 13:14:09;;;;;;;3.83;2.33;;;;;;;9.37;100.00;102083.75;6224192;28;20050;-69
2021/11/11 13:17:15;;;;;;;6.30;2.60;;;;;;;9.37;100.00;102079.38;6222797;28;20068;-68
2021/11/11 13:20:21;;;;;;;6.38;2.63;;;;;;;9.40;100.00;102078.41;6223822;28;20053;-68
2021/11/11 13:23:29;;;;;;;3.65;2.45;;;;;;;9.38;100.00;102073.22;6224324;28;20054;-69
2021/11/11 13:26:58;;;;;;;5.63;2.70;;;;;;;9.39;100.00;102079.31;6224004;28;20273;-68
2021/11/11 14:00:54;;;;;;;7.13;3.25;;;;;;;9.21;100.00;102085.06;6198662;28;20046;-68
2021/11/11 15:13:41;;;;;;;7.80;3.65;;;;;;;8.77;100.00;102101.03;6222065;28;20050;-71
2021/11/11 15:18:33;;;;;;;7.85;4.03;;;;;;;8.69;100.00;102089.00;6343427;27;20361;-68
2021/11/11 16:02:08;;;;;;;11.07;4.38;;;;;;;8.29;100.00;102102.97;6316899;28;20074;-71
2021/11/11 16:22:15;;;;;;;19.70;6.30;;;;;;;8.23;100.00;102113.59;6341809;28;20043;-71
2021/11/11 16:25:36;;;;;;;18.15;6.13;;;;;;;8.22;100.00;102112.72;6333528;28;20048;-71
2021/11/11 16:28:38;;;;;;;13.75;5.18;;;;;;;8.18;100.00;102118.06;6316680;28;20075;-71
2021/11/11 16:31:39;;;;;;;15.05;5.35;;;;;;;8.10;100.00;102108.59;6324221;28;20044;-71
2021/11/11 16:34:41;;;;;;;15.10;5.63;;;;;;;8.09;100.00;102113.88;6324252;28;20044;-71
2021/11/11 16:37:44;;;;;;;18.83;7.13;;;;;;;8.08;100.00;102115.66;6299420;28;20407;-71
2021/11/11 16:40:46;;;;;;;14.23;6.60;;;;;;;8.07;100.00;102120.91;6316940;28;20044;-69
2021/11/11 16:43:48;;;;;;;15.88;6.97;;;;;;;8.10;100.00;102121.69;6310478;28;20705;-70
2021/11/11 16:46:50;;;;;;;17.90;5.75;;;;;;;8.13;100.00;102119.03;6319846;28;20189;-70
2021/11/11 16:49:51;;;;;;;15.18;7.00;;;;;;;8.10;100.00;102123.47;6323473;28;20055;-70
2021/11/11 16:52:53;;;;;;;12.27;5.80;;;;;;;8.12;100.00;102126.88;6324285;28;20055;-70
2021/11/11 16:55:56;;;;;;;18.63;7.40;;;;;;;8.03;100.00;102127.94;6324231;28;20057;-72
2021/11/11 16:58:58;;;;;;;19.30;7.03;;;;;;;8.00;100.00;102117.56;6319370;28;20055;-72
2021/11/11 17:02:00;;;;;;;20.13;5.63;;;;;;;7.99;100.00;102122.81;6324024;28;20048;-70
2021/11/11 17:05:02;;;;;;;16.90;6.18;;;;;;;7.98;100.00;102121.09;6323708;28;20418;-70
2021/11/11 17:08:04;;;;;;;19.67;8.23;;;;;;;8.00;100.00;102124.56;6324072;28;20048;-71
2021/11/11 17:11:06;;;;;;;16.20;6.40;;;;;;;7.96;100.00;102125.50;6323715;28;20048;-72
2021/11/11 17:14:08;;;;;;;12.75;5.63;;;;;;;7.99;100.00;102128.88;6320402;28;20052;-72
2021/11/11 17:17:09;;;;;;;13.02;5.50;;;;;;;8.00;100.00;102133.25;6310341;28;20051;-73
2021/11/11 17:20:12;;;;;;;11.63;4.80;;;;;;;8.05;100.00;102141.03;6322878;28;20055;-72
2021/11/11 17:23:17;;;;;;;16.83;6.10;;;;;;;8.05;100.00;102138.41;6323454;28;20063;-72